createdAt,value
2023-03-05T00:00:54.879Z,65.15
2023-03-05T00:03:21.241Z,65.27
2023-03-05T00:05:47.670Z,65.08
2023-03-05T00:08:14.045Z,64.19
2023-03-05T00:10:40.551Z,63.44
2023-03-05T00:13:06.977Z,63.67
2023-03-05T00:15:33.296Z,64.19
2023-03-05T00:17:59.818Z,65.54
2023-03-05T00:20:26.169Z,65.94
2023-03-05T00:22:52.808Z,66.71
2023-03-05T00:25:19.180Z,66.59
2023-03-05T00:27:45.586Z,66.56
2023-03-05T00:30:12.495Z,66.72
2023-03-05T00:32:38.931Z,66.81
2023-03-05T00:35:05.929Z,66.46
2023-03-05T00:37:32.499Z,66.35
2023-03-05T00:39:58.901Z,66.83
2023-03-05T00:42:25.404Z,67.63
2023-03-05T00:44:51.784Z,67.80
2023-03-05T00:47:18.128Z,67.99
2023-03-05T00:49:44.581Z,68.66
2023-03-05T00:52:10.914Z,69.18
2023-03-05T00:54:37.308Z,68.81
2023-03-05T00:57:03.759Z,68.15
2023-03-05T00:59:30.144Z,67.41
2023-03-05T01:01:56.495Z,67.75
2023-03-05T01:04:22.952Z,67.64
2023-03-05T01:06:49.576Z,67.19
2023-03-05T01:09:15.955Z,67.55
2023-03-05T01:11:42.339Z,67.56
2023-03-05T01:14:08.842Z,67.26
2023-03-05T01:16:35.210Z,66.33
2023-03-05T01:19:01.660Z,66.91
2023-03-05T01:21:28.399Z,66.55
2023-03-05T01:23:54.802Z,65.76
2023-03-05T01:26:21.615Z,66.38
2023-03-05T01:28:48.040Z,66.67
2023-03-05T01:31:14.596Z,67.09
2023-03-05T01:33:40.960Z,67.49
2023-03-05T01:36:09.394Z,67.43
2023-03-05T01:38:35.694Z,67.43
2023-03-05T01:41:02.128Z,67.77
2023-03-05T01:43:30.029Z,67.61
2023-03-05T01:46:31.627Z,67.35
2023-03-05T01:49:22.045Z,66.25
2023-03-05T01:52:10.842Z,65.95
2023-03-05T01:54:42.994Z,66.37
2023-03-05T01:57:16.018Z,65.74
2023-03-05T01:59:45.662Z,65.74
2023-03-05T02:02:13.537Z,65.64
2023-03-05T02:04:45.059Z,65.57
2023-03-05T02:07:13.655Z,65.21
2023-03-05T02:09:41.523Z,63.67
2023-03-05T02:12:10.340Z,64.17
2023-03-05T02:14:38.571Z,63.60
2023-03-05T02:17:05.601Z,64.56
2023-03-05T02:19:51.148Z,65.46
2023-03-05T02:22:19.673Z,66.11
2023-03-05T02:24:46.543Z,66.79
2023-03-05T02:27:14.132Z,65.40
2023-03-05T02:29:44.664Z,66.60
2023-03-05T02:32:12.484Z,67.45
2023-03-05T02:34:39.283Z,67.14
2023-03-05T02:37:06.164Z,67.82
2023-03-05T02:39:32.553Z,68.43
2023-03-05T02:41:58.932Z,67.61
2023-03-05T02:44:25.264Z,66.76
2023-03-05T02:46:51.756Z,67.45
2023-03-05T02:49:18.187Z,68.88
2023-03-05T02:51:44.684Z,68.83
2023-03-05T02:54:11.308Z,67.82
2023-03-05T02:56:37.692Z,68.05
2023-03-05T02:59:04.331Z,67.69
2023-03-05T03:01:31.073Z,66.56
2023-03-05T03:03:57.399Z,67.44
2023-03-05T03:06:23.802Z,67.67
2023-03-05T03:08:50.156Z,67.99
2023-03-05T03:11:16.814Z,67.61
2023-03-05T03:13:43.308Z,66.47
2023-03-05T03:16:12.640Z,65.68
2023-03-05T03:18:39.510Z,66.15
2023-03-05T03:21:06.298Z,65.82
2023-03-05T03:23:33.341Z,65.04
2023-03-05T03:26:00.111Z,65.61
2023-03-05T03:28:26.509Z,64.99
2023-03-05T03:30:52.909Z,64.57
2023-03-05T03:33:19.351Z,64.68
2023-03-05T03:35:46.100Z,64.36
2023-03-05T03:38:12.832Z,63.77
2023-03-05T03:40:41.169Z,64.77
2023-03-05T03:43:08.207Z,63.79
2023-03-05T03:45:34.612Z,63.77
2023-03-05T03:48:01.020Z,62.05
2023-03-05T03:50:27.379Z,63.00
2023-03-05T03:52:53.932Z,63.70
2023-03-05T03:55:20.380Z,63.66
2023-03-05T03:57:46.689Z,64.22
2023-03-05T04:00:13.266Z,65.51
2023-03-05T04:02:40.514Z,65.57
2023-03-05T04:05:07.454Z,65.36
2023-03-05T04:07:33.895Z,65.52
2023-03-05T04:10:00.198Z,65.22
2023-03-05T04:12:26.535Z,64.77
2023-03-05T04:14:52.980Z,65.12
2023-03-05T04:17:19.326Z,65.19
2023-03-05T04:19:45.655Z,65.40
2023-03-05T04:22:14.510Z,64.75
2023-03-05T04:24:41.120Z,65.52
2023-03-05T04:27:07.611Z,65.40
2023-03-05T04:29:34.921Z,65.52
2023-03-05T04:32:01.534Z,65.63
2023-03-05T04:34:28.341Z,66.01
2023-03-05T04:36:54.777Z,66.60
2023-03-05T04:39:21.361Z,67.35
2023-03-05T04:41:48.355Z,68.13
2023-03-05T04:44:14.788Z,68.54
2023-03-05T04:46:41.605Z,68.54
2023-03-05T04:49:08.040Z,68.71
2023-03-05T04:51:34.703Z,67.79
2023-03-05T04:54:01.111Z,68.73
2023-03-05T04:56:27.547Z,69.17
2023-03-05T04:58:53.921Z,69.49
2023-03-05T05:01:20.277Z,70.05
2023-03-05T05:03:47.010Z,70.42
2023-03-05T05:06:13.321Z,70.83
2023-03-05T05:08:39.701Z,71.17
2023-03-05T05:11:08.002Z,71.61
2023-03-05T05:13:35.223Z,70.73
2023-03-05T05:16:01.910Z,71.19
2023-03-05T05:18:28.361Z,69.97
2023-03-05T05:20:54.754Z,70.81
2023-03-05T05:23:21.149Z,69.64
2023-03-05T05:26:05.457Z,70.45
2023-03-05T05:28:32.243Z,70.96
2023-03-05T05:30:58.838Z,70.61
2023-03-05T05:33:26.290Z,70.89
2023-03-05T05:35:52.878Z,70.77
2023-03-05T05:38:19.636Z,70.32
2023-03-05T05:40:45.979Z,70.49
2023-03-05T05:43:12.755Z,69.38
2023-03-05T05:45:39.410Z,68.82
2023-03-05T05:48:06.668Z,69.43
2023-03-05T05:50:33.046Z,69.86
2023-03-05T05:52:59.696Z,70.08
2023-03-05T05:55:26.037Z,70.29
2023-03-05T05:57:52.411Z,70.50
2023-03-05T06:00:19.170Z,69.54
2023-03-05T06:02:45.647Z,69.43
2023-03-05T06:05:13.524Z,69.67
2023-03-05T06:07:39.961Z,68.29
2023-03-05T06:10:07.224Z,67.79
2023-03-05T06:12:33.657Z,68.96
2023-03-05T06:14:59.972Z,68.75
2023-03-05T06:17:30.805Z,68.32
2023-03-05T06:19:58.092Z,68.33
2023-03-05T06:22:24.390Z,67.86
2023-03-05T06:24:50.780Z,67.90
2023-03-05T06:27:17.167Z,68.08
2023-03-05T06:29:43.622Z,67.73
2023-03-05T06:32:10.013Z,68.12
2023-03-05T06:34:36.490Z,67.70
2023-03-05T06:37:02.924Z,67.23
2023-03-05T06:39:29.338Z,66.58
2023-03-05T06:41:55.921Z,65.34
2023-03-05T06:44:22.215Z,66.01
2023-03-05T06:46:48.663Z,66.02
2023-03-05T06:49:15.187Z,65.71
2023-03-05T06:51:41.710Z,65.39
2023-03-05T06:54:13.903Z,65.51
2023-03-05T06:56:42.635Z,65.47
2023-03-05T06:59:10.989Z,65.64
2023-03-05T07:01:37.850Z,65.41
2023-03-05T07:04:04.845Z,66.26
2023-03-05T07:06:37.262Z,66.29
2023-03-05T07:09:05.374Z,66.73
2023-03-05T07:11:32.563Z,67.48
2023-03-05T07:13:58.938Z,66.53
2023-03-05T07:16:32.183Z,65.99
2023-03-05T07:19:01.134Z,65.69
2023-03-05T07:21:29.606Z,66.28
2023-03-05T07:23:58.173Z,66.31
2023-03-05T07:26:25.132Z,66.56
2023-03-05T07:28:51.859Z,66.47
2023-03-05T07:31:24.025Z,66.38
2023-03-05T07:33:50.930Z,66.68
2023-03-05T07:36:17.602Z,66.73
2023-03-05T07:38:44.643Z,67.35
2023-03-05T07:41:13.506Z,67.38
2023-03-05T07:43:40.422Z,67.29
2023-03-05T07:46:08.572Z,66.90
2023-03-05T07:48:34.960Z,67.63
2023-03-05T07:51:06.606Z,67.81
2023-03-05T07:53:33.109Z,67.32
2023-03-05T07:55:59.525Z,67.29
2023-03-05T07:58:26.164Z,67.35
2023-03-05T08:00:52.522Z,67.26
2023-03-05T08:03:18.971Z,67.14
2023-03-05T08:05:45.843Z,67.38
2023-03-05T08:08:12.731Z,67.41
2023-03-05T08:10:39.967Z,66.12
2023-03-05T08:13:06.649Z,66.52
2023-03-05T08:15:33.060Z,67.16
2023-03-05T08:18:00.202Z,66.11
2023-03-05T08:20:26.787Z,66.13
2023-03-05T08:22:53.209Z,65.38
2023-03-05T08:25:19.628Z,65.26
2023-03-05T08:27:47.800Z,65.59
2023-03-05T08:30:18.236Z,64.72
2023-03-05T08:32:44.859Z,65.65
2023-03-05T08:35:11.674Z,65.65
2023-03-05T08:37:37.988Z,65.74
2023-03-05T08:40:04.766Z,64.64
2023-03-05T08:42:31.193Z,64.34
2023-03-05T08:44:57.507Z,63.61
2023-03-05T08:47:23.883Z,63.55
2023-03-05T08:49:50.573Z,63.42
2023-03-05T08:52:17.216Z,63.03
2023-03-05T08:54:43.586Z,62.08
2023-03-05T08:57:09.978Z,62.08
2023-03-05T08:59:36.721Z,61.99
2023-03-05T09:02:03.119Z,62.13
2023-03-05T09:04:29.770Z,61.86
2023-03-05T09:06:57.440Z,61.57
2023-03-05T09:09:23.884Z,60.51
2023-03-05T09:11:50.398Z,61.36
2023-03-05T09:14:16.699Z,61.48
2023-03-05T09:16:43.167Z,62.79
2023-03-05T09:19:09.729Z,63.10
2023-03-05T09:21:36.779Z,61.36
2023-03-05T09:24:03.208Z,61.65
2023-03-05T09:26:29.638Z,62.49
2023-03-05T09:28:56.189Z,64.54
2023-03-05T09:31:23.218Z,65.28
2023-03-05T09:33:50.077Z,65.14
2023-03-05T09:36:19.978Z,66.05
2023-03-05T09:38:46.804Z,66.74
2023-03-05T09:41:37.967Z,67.53
2023-03-05T09:44:31.398Z,68.70
2023-03-05T09:47:35.416Z,67.83
2023-03-05T09:50:18.988Z,68.83
2023-03-05T09:52:50.142Z,67.68
2023-03-05T09:55:37.711Z,66.33
2023-03-05T09:58:11.316Z,67.35
2023-03-05T10:00:44.719Z,68.23
2023-03-05T10:03:27.182Z,68.71
2023-03-05T10:06:02.415Z,67.85
2023-03-05T10:09:02.796Z,68.82
2023-03-05T10:12:06.482Z,68.67
2023-03-05T10:14:35.842Z,69.37
2023-03-05T10:17:24.655Z,68.49
2023-03-05T10:20:03.876Z,68.23
2023-03-05T10:22:48.398Z,69.32
2023-03-05T10:25:26.426Z,69.12
2023-03-05T10:28:03.723Z,70.09
2023-03-05T10:30:45.621Z,68.80
2023-03-05T10:33:22.919Z,69.36
2023-03-05T10:35:57.784Z,65.29
2023-03-05T10:38:36.298Z,66.10
2023-03-05T10:41:33.256Z,61.95
2023-03-05T10:44:36.219Z,60.14
2023-03-05T10:47:03.992Z,58.77
2023-03-05T10:49:36.570Z,60.20
2023-03-05T10:52:13.447Z,59.43
2023-03-05T10:54:39.760Z,61.00
2023-03-05T10:57:11.868Z,60.75
2023-03-05T10:59:41.876Z,59.61
2023-03-05T11:02:09.942Z,58.29
2023-03-05T11:04:39.287Z,59.19
2023-03-05T11:07:16.098Z,59.25
2023-03-05T11:09:43.745Z,58.16
2023-03-05T11:12:16.436Z,59.44
2023-03-05T11:15:02.170Z,60.34
2023-03-05T11:17:33.025Z,59.97
2023-03-05T11:20:28.747Z,59.08
2023-03-05T11:23:19.764Z,58.50
2023-03-05T11:25:52.263Z,59.07
2023-03-05T11:28:31.988Z,60.66
2023-03-05T11:31:03.533Z,61.60
2023-03-05T11:33:31.605Z,63.46
2023-03-05T11:36:25.374Z,61.66
2023-03-05T11:38:54.798Z,63.04
2023-03-05T11:41:27.304Z,65.05
2023-03-05T11:43:54.668Z,63.56
2023-03-05T11:46:21.967Z,63.38
2023-03-05T11:48:49.509Z,63.17
2023-03-05T11:51:21.132Z,63.62
2023-03-05T11:53:51.630Z,64.84
2023-03-05T11:56:25.460Z,69.30
2023-03-05T11:59:01.949Z,69.90
2023-03-05T12:01:35.459Z,71.54
2023-03-05T12:04:03.800Z,72.08
2023-03-05T12:06:38.626Z,73.13
2023-03-05T12:09:26.645Z,73.35
2023-03-05T12:12:12.055Z,72.85
2023-03-05T12:14:49.742Z,72.56
2023-03-05T12:17:27.958Z,71.69
2023-03-05T12:20:07.051Z,71.48
2023-03-05T12:22:38.489Z,71.03
2023-03-05T12:25:26.606Z,70.12
2023-03-05T12:27:52.972Z,69.82
2023-03-05T12:30:34.464Z,69.07
2023-03-05T12:33:03.352Z,67.52
2023-03-05T12:35:35.591Z,64.47
2023-03-05T12:38:17.166Z,64.21
2023-03-05T12:40:50.543Z,66.34
2023-03-05T12:43:33.820Z,67.17
2023-03-05T12:46:23.414Z,63.23
2023-03-05T12:48:49.769Z,65.32
2023-03-05T12:51:35.126Z,64.13
2023-03-05T12:54:22.761Z,66.91
2023-03-05T12:56:49.290Z,66.38
2023-03-05T12:59:20.103Z,66.33
2023-03-05T13:01:52.483Z,66.96
2023-03-05T13:04:28.716Z,66.60
2023-03-05T13:07:06.374Z,66.50
2023-03-05T13:09:34.092Z,64.85
2023-03-05T13:12:02.861Z,66.32
2023-03-05T13:14:43.406Z,68.63
2023-03-05T13:17:29.902Z,67.62
2023-03-05T13:19:57.568Z,66.86
2023-03-05T13:22:24.475Z,66.56
2023-03-05T13:25:14.667Z,67.36
2023-03-05T13:27:41.499Z,68.10
2023-03-05T13:30:25.172Z,68.57
2023-03-05T13:32:54.678Z,68.15
2023-03-05T13:35:21.214Z,66.68
2023-03-05T13:37:48.489Z,66.50
2023-03-05T13:40:32.285Z,67.52
2023-03-05T13:43:12.994Z,67.85
2023-03-05T13:45:39.377Z,69.08
2023-03-05T13:48:06.871Z,66.62
2023-03-05T13:50:39.325Z,66.39
2023-03-05T13:53:24.170Z,65.32
2023-03-05T13:55:52.764Z,66.35
2023-03-05T13:58:45.416Z,66.79
2023-03-05T14:01:33.881Z,65.35
2023-03-05T14:04:16.606Z,64.73
2023-03-05T14:06:54.853Z,65.47
2023-03-05T14:09:22.926Z,63.67
2023-03-05T14:12:18.936Z,65.65
2023-03-05T14:14:45.644Z,63.52
2023-03-05T14:17:35.738Z,64.10
2023-03-05T14:20:11.202Z,63.97
2023-03-05T14:22:39.998Z,64.63
2023-03-05T14:25:25.381Z,64.23
2023-03-05T14:27:52.176Z,63.98
2023-03-05T14:30:21.835Z,62.97
2023-03-05T14:32:50.389Z,63.18
2023-03-05T14:35:20.328Z,62.35
2023-03-05T14:37:49.744Z,64.02
2023-03-05T14:40:26.257Z,64.21
2023-03-05T14:42:54.929Z,64.91
2023-03-05T14:45:32.964Z,63.73
2023-03-05T14:48:01.839Z,64.05
2023-03-05T14:50:42.973Z,65.48
2023-03-05T14:53:16.580Z,65.50
2023-03-05T14:55:43.140Z,67.57
2023-03-05T14:58:16.453Z,67.53
2023-03-05T15:00:43.658Z,66.47
2023-03-05T15:03:15.163Z,67.55
2023-03-05T15:05:43.168Z,68.45
2023-03-05T15:08:18.878Z,68.84
2023-03-05T15:10:45.300Z,68.29
2023-03-05T15:13:13.964Z,68.16
2023-03-05T15:15:42.262Z,69.06
2023-03-05T15:18:16.870Z,68.75
2023-03-05T15:20:44.108Z,68.20
2023-03-05T15:23:10.753Z,68.57
2023-03-05T15:25:37.364Z,69.79
2023-03-05T15:28:03.874Z,68.33
2023-03-05T15:30:35.766Z,68.82
2023-03-05T15:33:08.144Z,65.87
2023-03-05T15:35:34.614Z,66.62
2023-03-05T15:38:01.158Z,67.09
2023-03-05T15:40:27.948Z,67.67
2023-03-05T15:42:55.635Z,68.47
2023-03-05T15:45:22.070Z,69.02
2023-03-05T15:47:52.592Z,67.22
2023-03-05T15:50:22.349Z,67.90
2023-03-05T15:52:49.234Z,67.22
2023-03-05T15:55:16.008Z,67.40
2023-03-05T15:57:44.988Z,66.87
2023-03-05T16:00:13.103Z,68.10
2023-03-05T16:02:39.597Z,68.26
2023-03-05T16:05:06.516Z,69.00
2023-03-05T16:07:36.090Z,67.74
2023-03-05T16:10:03.769Z,67.93
2023-03-05T16:12:35.718Z,68.69
2023-03-05T16:15:02.053Z,69.56
2023-03-05T16:17:28.624Z,70.25
2023-03-05T16:19:56.152Z,70.67
2023-03-05T16:22:22.450Z,69.10
2023-03-05T16:24:48.759Z,69.34
2023-03-05T16:27:15.175Z,69.65
2023-03-05T16:29:41.565Z,69.47
2023-03-05T16:32:08.019Z,69.41
2023-03-05T16:34:34.586Z,70.71
2023-03-05T16:37:01.182Z,72.50
2023-03-05T16:39:27.817Z,72.53
2023-03-05T16:41:54.821Z,73.17
2023-03-05T16:44:21.222Z,72.77
2023-03-05T16:46:47.677Z,73.10
2023-03-05T16:49:14.071Z,73.91
2023-03-05T16:51:40.592Z,73.83
2023-03-05T16:54:09.990Z,74.39
2023-03-05T16:56:37.005Z,74.72
2023-03-05T16:59:03.846Z,74.83
2023-03-05T17:01:30.385Z,75.06
2023-03-05T17:04:01.071Z,74.88
2023-03-05T17:06:30.266Z,75.04
2023-03-05T17:08:57.231Z,75.20
2023-03-05T17:11:24.276Z,75.43
2023-03-05T17:13:50.668Z,75.53
2023-03-05T17:16:18.739Z,75.48
2023-03-05T17:18:45.453Z,75.92
2023-03-05T17:21:12.278Z,75.68
2023-03-05T17:23:39.628Z,75.49
2023-03-05T17:26:11.136Z,74.71
2023-03-05T17:28:37.752Z,75.12
2023-03-05T17:31:04.193Z,74.92
2023-03-05T17:33:32.207Z,74.16
2023-03-05T17:35:58.890Z,73.35
2023-03-05T17:38:26.287Z,73.24
2023-03-05T17:40:53.061Z,73.82
2023-03-05T17:43:19.434Z,74.38
2023-03-05T17:45:46.558Z,73.22
2023-03-05T17:48:13.716Z,73.59
2023-03-05T17:50:40.536Z,73.64
2023-03-05T17:53:06.992Z,74.15
2023-03-05T17:55:33.590Z,74.96
2023-03-05T17:57:59.887Z,75.21
2023-03-05T18:00:29.058Z,75.37
2023-03-05T18:02:56.079Z,75.33
2023-03-05T18:05:24.742Z,75.68
2023-03-05T18:07:51.568Z,75.50
2023-03-05T18:10:20.364Z,74.78
2023-03-05T18:12:47.277Z,75.29
2023-03-05T18:15:16.655Z,74.29
2023-03-05T18:17:43.816Z,74.58
2023-03-05T18:20:23.663Z,74.59
2023-03-05T18:22:50.055Z,74.26
2023-03-05T18:25:16.466Z,73.96
2023-03-05T18:27:42.893Z,73.92
2023-03-05T18:30:10.048Z,73.31
2023-03-05T18:32:36.575Z,73.85
2023-03-05T18:35:03.156Z,74.77
2023-03-05T18:37:29.578Z,74.96
2023-03-05T18:39:56.005Z,73.72
2023-03-05T18:42:22.368Z,74.92
2023-03-05T18:44:48.786Z,75.84
2023-03-05T18:47:15.097Z,74.71
2023-03-05T18:49:41.513Z,74.66
2023-03-05T18:52:07.923Z,75.58
2023-03-05T18:54:34.226Z,76.08
2023-03-05T18:57:00.908Z,76.00
2023-03-05T18:59:33.593Z,76.15
2023-03-05T19:01:59.975Z,76.50
2023-03-05T19:04:27.156Z,75.84
2023-03-05T19:06:53.560Z,75.12
2023-03-05T19:09:20.271Z,76.05
2023-03-05T19:11:47.804Z,76.25
2023-03-05T19:14:14.200Z,76.85
2023-03-05T19:16:40.528Z,75.78
2023-03-05T19:19:12.247Z,75.93
2023-03-05T19:21:38.987Z,75.67
2023-03-05T19:24:06.303Z,76.31
2023-03-05T19:26:33.477Z,76.29
2023-03-05T19:28:59.782Z,76.33
2023-03-05T19:31:26.416Z,76.18
2023-03-05T19:33:54.349Z,76.02
2023-03-05T19:36:21.027Z,75.63
2023-03-05T19:38:48.686Z,75.17
2023-03-05T19:41:15.935Z,76.28
2023-03-05T19:43:42.604Z,76.70
2023-03-05T19:46:09.499Z,77.21
2023-03-05T19:48:37.308Z,77.22
2023-03-05T19:51:09.466Z,76.89
2023-03-05T19:53:35.769Z,76.90
2023-03-05T19:56:03.046Z,77.07
2023-03-05T19:58:29.410Z,77.41
2023-03-05T20:00:55.817Z,76.84
2023-03-05T20:03:22.116Z,76.73
2023-03-05T20:05:48.416Z,77.23
2023-03-05T20:08:14.921Z,77.24
2023-03-05T20:10:41.242Z,76.80
2023-03-05T20:13:07.719Z,76.79
2023-03-05T20:15:34.315Z,76.52
2023-03-05T20:18:00.947Z,75.95
2023-03-05T20:20:27.260Z,75.97
2023-03-05T20:22:53.895Z,76.64
2023-03-05T20:25:20.524Z,76.27
2023-03-05T20:27:47.102Z,75.43
2023-03-05T20:30:15.775Z,75.60
2023-03-05T20:32:42.273Z,74.51
2023-03-05T20:35:13.755Z,74.48
2023-03-05T20:37:40.461Z,74.18
2023-03-05T20:40:08.036Z,73.83
2023-03-05T20:42:34.512Z,73.96
2023-03-05T20:45:01.259Z,74.96
2023-03-05T20:47:27.765Z,75.43
2023-03-05T20:49:55.084Z,75.81
2023-03-05T20:52:22.446Z,75.77
2023-03-05T20:54:48.814Z,74.83
2023-03-05T20:57:15.254Z,74.33
2023-03-05T20:59:41.895Z,74.29
2023-03-05T21:02:10.051Z,75.53
2023-03-05T21:04:36.405Z,75.45
2023-03-05T21:07:02.837Z,75.33
2023-03-05T21:09:29.356Z,76.00
2023-03-05T21:11:55.733Z,76.43
2023-03-05T21:14:22.159Z,75.25
2023-03-05T21:16:48.585Z,76.24
2023-03-05T21:19:14.901Z,75.55
2023-03-05T21:21:41.380Z,76.25
2023-03-05T21:24:07.976Z,76.81
2023-03-05T21:26:34.348Z,77.38
2023-03-05T21:29:00.751Z,78.12
2023-03-05T21:31:27.189Z,78.14
2023-03-05T21:33:53.880Z,78.16
2023-03-05T21:36:20.430Z,77.85
2023-03-05T21:38:48.323Z,77.74
2023-03-05T21:41:15.039Z,77.83
2023-03-05T21:43:41.476Z,77.45
2023-03-05T21:46:07.837Z,77.80
2023-03-05T21:48:34.570Z,77.99
2023-03-05T21:51:06.587Z,78.61
2023-03-05T21:53:33.129Z,78.64
2023-03-05T21:56:05.760Z,78.59
2023-03-05T21:58:34.796Z,79.29
2023-03-05T22:01:01.662Z,79.37
2023-03-05T22:03:29.376Z,79.19
2023-03-05T22:05:56.753Z,79.06
2023-03-05T22:08:24.322Z,79.10
2023-03-05T22:10:51.145Z,78.75
2023-03-05T22:13:17.797Z,78.84
2023-03-05T22:15:49.861Z,78.71
2023-03-05T22:18:18.972Z,78.55
2023-03-05T22:20:45.783Z,78.87
2023-03-05T22:23:12.119Z,78.96
2023-03-05T22:25:39.024Z,79.30
2023-03-05T22:28:05.683Z,79.30
2023-03-05T22:30:32.956Z,79.54
2023-03-05T22:33:01.135Z,79.57
2023-03-05T22:35:27.870Z,79.89
2023-03-05T22:37:54.555Z,80.16
2023-03-05T22:40:22.481Z,80.44
2023-03-05T22:42:49.122Z,80.94
2023-03-05T22:45:17.142Z,81.00
2023-03-05T22:47:46.442Z,81.40
2023-03-05T22:50:12.879Z,81.40
2023-03-05T22:52:39.243Z,81.38
2023-03-05T22:55:06.114Z,81.39
2023-03-05T22:57:32.803Z,81.42
2023-03-05T22:59:59.558Z,81.83
2023-03-05T23:02:26.093Z,82.09
2023-03-05T23:04:53.171Z,82.31
2023-03-05T23:07:29.259Z,82.18
2023-03-05T23:10:03.842Z,82.45
2023-03-05T23:12:33.331Z,82.56
2023-03-05T23:15:01.144Z,82.50
2023-03-05T23:17:27.879Z,83.23
2023-03-05T23:19:54.225Z,83.15
2023-03-05T23:22:21.270Z,83.32
2023-03-05T23:24:47.727Z,83.15
2023-03-05T23:27:17.114Z,83.22
2023-03-05T23:29:59.073Z,83.69
2023-03-05T23:32:29.173Z,83.91
2023-03-05T23:34:56.268Z,83.78
2023-03-05T23:37:22.573Z,83.80
2023-03-05T23:39:48.963Z,83.69
2023-03-05T23:42:15.334Z,83.70
2023-03-05T23:44:41.725Z,84.56
2023-03-05T23:47:08.015Z,84.72
2023-03-05T23:49:34.448Z,84.91
2023-03-05T23:52:00.778Z,84.79
2023-03-05T23:54:27.604Z,84.80
2023-03-05T23:56:53.999Z,85.03
2023-03-05T23:59:20.423Z,85.30
